Lakeport, New York
Current Conditions -  °F | °C
As of 4:17 PM on Thursday 20 Nov 2014 (Local Time) from KSYR Reporting Station
Light Snow Light Snow  
Wind Chill: 14°   Ceiling: 2500
Heat Index: 28°   Visibility: 2mi
Dew Point: 17°   Wind: 23mph
Humidity: 63%   Direction: 260°W
Pressure: 29.88"   Gusts: 31mph
Location:  43.0618°N, 75.8688°W
Report Text: KSYR 202117Z 26020G27KT 2SM -SN BKN025 OVC047 M02/M08 A2988 RMK AO2 PK WND 27027/2113 P0000 T10221083 $
Loading
Personal Weather Stations






























Interactive Weather Map New forecast layout! Learn more

10-Day Weather Forecast

Advertisements
Track Severe Weather on mobile